createdAt,value
2018-11-25T00:00:08.485Z,52.20
2018-11-25T00:02:33.566Z,53.20
2018-11-25T00:04:58.591Z,52.37
2018-11-25T00:07:23.645Z,51.83
2018-11-25T00:09:48.788Z,50.87
2018-11-25T00:12:13.868Z,47.07
2018-11-25T00:14:38.923Z,53.37
2018-11-25T00:17:03.978Z,48.87
2018-11-25T00:19:29.042Z,56.17
2018-11-25T00:21:54.097Z,52.83
2018-11-25T00:24:19.182Z,53.83
2018-11-25T00:26:44.248Z,58.33
2018-11-25T00:29:09.291Z,53.63
2018-11-25T00:34:10.989Z,60.27
2018-11-25T00:36:36.056Z,55.43
2018-11-25T00:39:01.124Z,52.70
2018-11-25T00:41:26.226Z,48.17
2018-11-25T00:43:51.317Z,55.87
2018-11-25T00:46:16.415Z,54.83
2018-11-25T00:48:41.495Z,56.63
2018-11-25T00:51:06.854Z,58.83
2018-11-25T00:53:31.955Z,56.57
2018-11-25T00:55:57.034Z,61.10
2018-11-25T00:58:22.104Z,64.67
2018-11-25T01:00:47.200Z,62.70
2018-11-25T01:03:12.302Z,61.10
2018-11-25T01:05:37.432Z,66.93
2018-11-25T01:08:02.619Z,63.90
2018-11-25T01:10:27.750Z,59.17
2018-11-25T01:12:52.814Z,61.47
2018-11-25T01:15:18.600Z,63.33
2018-11-25T01:17:43.780Z,60.33
2018-11-25T01:20:28.808Z,61.03
2018-11-25T01:22:53.887Z,60.33
2018-11-25T01:25:18.968Z,59.10
2018-11-25T01:27:44.076Z,60.07
2018-11-25T01:30:29.054Z,62.40
2018-11-25T01:32:54.158Z,61.50
2018-11-25T01:35:19.282Z,63.17
2018-11-25T01:37:44.457Z,64.07
2018-11-25T01:40:28.590Z,58.20
2018-11-25T01:42:53.816Z,54.07
2018-11-25T01:45:19.253Z,58.67
2018-11-25T01:47:44.373Z,56.10
2018-11-25T01:50:10.990Z,52.40
2018-11-25T01:52:36.122Z,56.97
2018-11-25T01:55:01.206Z,51.90
2018-11-25T01:57:26.325Z,54.97
2018-11-25T01:59:51.421Z,53.03
2018-11-25T02:02:16.504Z,57.33
2018-11-25T02:09:56.487Z,58.70
2018-11-25T02:12:21.599Z,60.20
2018-11-25T02:14:46.710Z,58.17
2018-11-25T02:17:11.825Z,66.10
2018-11-25T02:19:36.903Z,60.83
2018-11-25T02:22:02.016Z,53.90
2018-11-25T02:24:27.081Z,64.87
2018-11-25T02:27:03.857Z,59.70
2018-11-25T02:34:42.257Z,57.33
2018-11-25T02:37:07.521Z,62.20
2018-11-25T02:39:32.604Z,53.90
2018-11-25T02:41:57.666Z,56.07
2018-11-25T02:44:22.834Z,61.70
2018-11-25T02:46:47.882Z,59.50
2018-11-25T02:49:12.970Z,54.07
2018-11-25T02:51:38.045Z,54.33
2018-11-25T02:54:03.102Z,54.53
2018-11-25T02:56:28.235Z,53.07
2018-11-25T02:58:53.275Z,56.90
2018-11-25T03:01:18.461Z,52.77
2018-11-25T03:03:43.560Z,55.43
2018-11-25T03:06:08.649Z,52.33
2018-11-25T03:08:33.790Z,55.70
2018-11-25T03:10:58.908Z,56.43
2018-11-25T03:13:24.089Z,53.47
2018-11-25T03:15:49.146Z,52.17
2018-11-25T03:20:52.984Z,53.83
2018-11-25T03:23:18.363Z,51.57
2018-11-25T03:25:43.426Z,50.43
2018-11-25T03:28:08.495Z,48.97
2018-11-25T03:30:33.594Z,43.90
2018-11-25T03:32:58.668Z,45.40
2018-11-25T03:35:23.767Z,44.47
2018-11-25T03:37:51.208Z,50.97
2018-11-25T03:40:17.229Z,47.37
2018-11-25T03:42:42.329Z,44.23
2018-11-25T03:45:27.883Z,47.07
2018-11-25T03:47:52.937Z,44.77
2018-11-25T03:50:18.103Z,47.03
2018-11-25T03:52:43.149Z,44.00
2018-11-25T03:55:20.291Z,51.43
2018-11-25T03:57:45.394Z,50.70
2018-11-25T04:00:32.891Z,47.77
2018-11-25T04:02:57.954Z,44.83
2018-11-25T04:05:23.012Z,46.50
2018-11-25T04:07:48.403Z,41.67
2018-11-25T04:10:32.501Z,46.17
2018-11-25T04:12:57.628Z,42.47
2018-11-25T04:15:22.689Z,45.33
2018-11-25T04:17:48.109Z,43.10
2018-11-25T04:20:14.420Z,47.17
2018-11-25T04:22:39.690Z,42.23
2018-11-25T04:25:04.759Z,42.00
2018-11-25T04:27:30.001Z,38.73
2018-11-25T04:29:54.894Z,50.27
2018-11-25T04:32:19.969Z,50.23
2018-11-25T04:34:45.016Z,48.17
2018-11-25T04:37:10.096Z,41.93
2018-11-25T04:39:35.145Z,44.00
2018-11-25T04:42:00.181Z,43.67
2018-11-25T04:44:25.297Z,47.53
2018-11-25T04:46:50.325Z,41.70
2018-11-25T04:49:15.408Z,41.93
2018-11-25T04:51:40.433Z,36.40
2018-11-25T04:54:05.565Z,35.40
2018-11-25T04:56:30.619Z,35.07
2018-11-25T04:58:55.661Z,39.43
2018-11-25T05:01:39.766Z,35.60
2018-11-25T05:04:04.825Z,37.00
2018-11-25T05:06:29.922Z,36.93
2018-11-25T05:08:55.102Z,38.43
2018-11-25T05:14:15.955Z,40.80
2018-11-25T05:16:41.007Z,42.33
2018-11-25T05:19:06.115Z,43.20
2018-11-25T05:21:31.217Z,36.87
2018-11-25T05:23:56.275Z,39.03
2018-11-25T05:26:21.407Z,36.80
2018-11-25T05:28:46.477Z,36.33
2018-11-25T05:31:11.521Z,35.13
2018-11-25T05:33:36.576Z,36.03
2018-11-25T05:36:01.864Z,34.07
2018-11-25T05:38:26.960Z,32.63
2018-11-25T05:40:52.019Z,34.90
2018-11-25T05:43:17.114Z,31.90
2018-11-25T05:45:42.171Z,35.83
2018-11-25T05:48:07.341Z,33.20
2018-11-25T05:50:32.428Z,36.33
2018-11-25T05:52:57.489Z,34.93
2018-11-25T05:55:22.554Z,31.63
2018-11-25T05:57:47.644Z,30.47
2018-11-25T06:00:41.377Z,31.23
2018-11-25T06:03:06.448Z,30.33
2018-11-25T06:05:31.557Z,31.40
2018-11-25T06:07:56.663Z,31.93
2018-11-25T06:10:21.752Z,30.57
2018-11-25T06:12:46.839Z,32.10
2018-11-25T06:15:12.929Z,30.70
2018-11-25T06:17:45.649Z,32.87
2018-11-25T06:20:30.614Z,32.97
2018-11-25T06:22:55.655Z,31.43
2018-11-25T06:25:21.657Z,34.83
2018-11-25T06:27:46.695Z,32.07
2018-11-25T06:30:30.783Z,33.67
2018-11-25T06:32:55.842Z,30.20
2018-11-25T06:35:21.205Z,33.83
2018-11-25T06:40:23.108Z,34.90
2018-11-25T06:42:59.740Z,33.70
2018-11-25T06:45:43.836Z,32.60
2018-11-25T06:48:09.041Z,34.03
2018-11-25T06:50:34.088Z,36.03
2018-11-25T06:52:59.135Z,32.70
2018-11-25T06:55:24.191Z,36.80
2018-11-25T06:57:49.233Z,33.40
2018-11-25T07:00:15.594Z,35.00
2018-11-25T07:02:40.664Z,35.53
2018-11-25T07:05:05.806Z,37.17
2018-11-25T07:07:30.871Z,36.33
2018-11-25T07:09:55.929Z,39.60
2018-11-25T07:12:21.007Z,40.60
2018-11-25T07:14:46.056Z,40.23
2018-11-25T07:17:11.099Z,39.13
2018-11-25T07:19:36.136Z,36.33
2018-11-25T07:22:01.184Z,41.03
2018-11-25T07:24:26.236Z,49.03
2018-11-25T07:26:51.333Z,39.33
2018-11-25T07:29:16.375Z,43.37
2018-11-25T07:31:41.451Z,46.77
2018-11-25T07:34:06.555Z,45.23
2018-11-25T07:36:31.596Z,44.63
2018-11-25T07:38:56.679Z,45.03
2018-11-25T07:41:21.748Z,45.33
2018-11-25T07:43:46.809Z,47.43
2018-11-25T07:46:11.899Z,46.07
2018-11-25T07:51:13.035Z,45.50
2018-11-25T07:53:38.063Z,48.77
2018-11-25T07:56:03.145Z,50.40
2018-11-25T07:58:40.785Z,50.17
2018-11-25T08:01:05.798Z,49.10
2018-11-25T08:03:30.880Z,54.30
2018-11-25T08:05:56.026Z,53.87
2018-11-25T08:08:21.100Z,51.27
2018-11-25T08:10:46.247Z,47.90
2018-11-25T08:13:11.301Z,51.90
2018-11-25T08:15:55.350Z,56.50
2018-11-25T08:18:20.437Z,56.93
2018-11-25T08:20:45.492Z,52.80
2018-11-25T08:23:10.588Z,56.63
2018-11-25T08:25:35.650Z,53.83
2018-11-25T08:28:00.732Z,58.53
2018-11-25T08:30:25.852Z,55.33
2018-11-25T08:32:51.024Z,57.33
2018-11-25T08:35:16.609Z,56.57
2018-11-25T08:37:41.669Z,61.33
2018-11-25T08:40:27.924Z,61.60
2018-11-25T08:42:53.045Z,55.63
2018-11-25T08:45:18.113Z,62.23
2018-11-25T08:47:43.258Z,53.30
2018-11-25T08:50:27.395Z,54.27
2018-11-25T08:52:55.214Z,58.63
2018-11-25T08:55:21.349Z,63.67
2018-11-25T08:57:46.574Z,54.50
2018-11-25T09:00:21.376Z,56.73
2018-11-25T09:02:46.523Z,61.97
2018-11-25T09:05:12.750Z,61.27
2018-11-25T09:07:37.832Z,61.70
2018-11-25T09:10:02.930Z,62.13
2018-11-25T09:12:28.054Z,56.90
2018-11-25T09:14:53.208Z,54.40
2018-11-25T09:17:20.825Z,59.83
2018-11-25T09:19:45.947Z,58.47
2018-11-25T09:22:11.033Z,59.20
2018-11-25T09:24:36.113Z,59.63
2018-11-25T09:27:01.239Z,57.87
2018-11-25T09:29:26.345Z,63.73
2018-11-25T09:31:51.450Z,60.37
2018-11-25T09:34:16.506Z,59.60
2018-11-25T09:36:41.582Z,57.80
2018-11-25T09:39:09.114Z,61.50
2018-11-25T09:41:34.196Z,60.30
2018-11-25T09:43:59.310Z,64.37
2018-11-25T09:46:24.454Z,63.03
2018-11-25T09:48:49.564Z,62.13
2018-11-25T09:51:14.588Z,64.17
2018-11-25T09:53:39.714Z,66.67
2018-11-25T09:56:04.837Z,62.90
2018-11-25T09:58:29.903Z,69.40
2018-11-25T10:00:55.049Z,69.60
2018-11-25T10:03:20.120Z,64.37
2018-11-25T10:05:45.258Z,61.13
2018-11-25T10:08:10.329Z,63.53
2018-11-25T10:10:35.466Z,69.00
2018-11-25T10:13:00.575Z,69.13
2018-11-25T10:15:26.802Z,63.43
2018-11-25T10:17:59.033Z,66.67
2018-11-25T10:20:36.057Z,71.50
2018-11-25T10:23:01.229Z,82.57
2018-11-25T10:25:26.293Z,74.10
2018-11-25T10:27:51.376Z,74.13
2018-11-25T10:30:35.512Z,73.23
2018-11-25T10:33:04.822Z,68.30
2018-11-25T10:35:29.923Z,67.30
2018-11-25T10:38:13.944Z,76.10
2018-11-25T10:40:39.355Z,75.97
2018-11-25T10:43:04.435Z,68.93
2018-11-25T10:45:29.806Z,77.27
2018-11-25T10:47:55.022Z,69.20
2018-11-25T10:50:20.761Z,72.47
2018-11-25T10:52:45.872Z,76.77
2018-11-25T10:55:12.202Z,80.93
2018-11-25T10:57:37.301Z,92.27
2018-11-25T11:00:02.426Z,73.43
2018-11-25T11:02:46.194Z,79.60
2018-11-25T11:05:11.296Z,77.83
2018-11-25T11:07:55.378Z,76.27
2018-11-25T11:10:20.527Z,77.97
2018-11-25T11:12:45.606Z,90.70
2018-11-25T11:15:12.146Z,87.07
2018-11-25T11:17:37.224Z,90.47
2018-11-25T11:20:02.340Z,84.43
2018-11-25T11:22:27.430Z,94.97
2018-11-25T11:24:52.497Z,93.63
2018-11-25T11:27:17.601Z,85.80
2018-11-25T11:29:42.772Z,111.97
2018-11-25T11:32:07.833Z,95.33
2018-11-25T11:34:32.960Z,96.83
2018-11-25T11:36:58.052Z,100.17
2018-11-25T11:39:23.159Z,100.93
2018-11-25T11:41:48.231Z,108.77
2018-11-25T11:44:13.349Z,111.27
2018-11-25T11:46:38.469Z,106.13
2018-11-25T11:49:03.599Z,100.13
2018-11-25T11:51:28.799Z,107.87
2018-11-25T11:53:53.886Z,107.83
2018-11-25T11:56:18.969Z,117.17
2018-11-25T11:58:44.133Z,120.80
2018-11-25T12:01:09.636Z,105.67
2018-11-25T12:03:34.834Z,120.47
2018-11-25T12:05:59.943Z,117.63
2018-11-25T12:08:25.035Z,118.30
2018-11-25T12:10:50.216Z,110.80
2018-11-25T12:13:15.353Z,132.83
2018-11-25T12:15:40.473Z,121.10
2018-11-25T12:18:05.862Z,114.80
2018-11-25T12:20:32.139Z,110.70
2018-11-25T12:22:57.716Z,121.67
2018-11-25T12:25:22.850Z,118.07
2018-11-25T12:27:50.265Z,115.80
2018-11-25T12:30:34.376Z,133.03
2018-11-25T12:32:59.608Z,112.57
2018-11-25T12:35:24.738Z,128.07
2018-11-25T12:37:49.866Z,125.83
2018-11-25T12:40:19.022Z,114.07
2018-11-25T12:43:03.541Z,135.03
2018-11-25T12:45:28.791Z,113.80
2018-11-25T12:50:30.767Z,128.50
2018-11-25T12:52:56.235Z,128.03
2018-11-25T12:55:22.499Z,139.13
2018-11-25T12:57:47.592Z,136.37
2018-11-25T13:00:32.536Z,120.20
2018-11-25T13:02:57.956Z,119.73
2018-11-25T13:05:23.201Z,124.70
2018-11-25T13:07:48.546Z,127.77
2018-11-25T13:10:13.951Z,114.83
2018-11-25T13:12:39.059Z,129.37
2018-11-25T13:15:04.183Z,121.67
2018-11-25T13:17:29.310Z,116.50
2018-11-25T13:19:54.413Z,131.93
2018-11-25T13:22:19.755Z,120.57
2018-11-25T13:24:44.825Z,113.40
2018-11-25T13:29:47.513Z,116.60
2018-11-25T13:32:12.822Z,118.20
2018-11-25T13:34:38.121Z,118.23
2018-11-25T13:37:03.289Z,116.60
2018-11-25T13:39:30.223Z,115.53
2018-11-25T13:41:54.153Z,116.97
2018-11-25T13:44:19.302Z,115.27
2018-11-25T13:46:44.398Z,109.50
2018-11-25T13:49:09.732Z,111.40
2018-11-25T13:51:35.019Z,125.97
2018-11-25T13:54:00.695Z,104.60
2018-11-25T13:56:26.059Z,117.67
2018-11-25T13:58:51.360Z,109.50
2018-11-25T14:01:16.479Z,111.10
2018-11-25T14:03:42.897Z,125.33
2018-11-25T14:06:27.005Z,125.17
2018-11-25T14:08:53.888Z,136.87
2018-11-25T14:11:18.961Z,118.07
2018-11-25T14:13:44.103Z,120.77
2018-11-25T14:16:10.859Z,129.47
2018-11-25T14:18:35.964Z,111.93
2018-11-25T14:21:01.065Z,114.70
2018-11-25T14:23:26.206Z,120.70
2018-11-25T14:25:51.505Z,121.30
2018-11-25T14:28:17.336Z,122.47
2018-11-25T14:30:42.434Z,122.23
2018-11-25T14:33:08.097Z,135.23
2018-11-25T14:35:33.254Z,126.20
2018-11-25T14:37:58.343Z,128.77
2018-11-25T14:40:23.474Z,133.33
2018-11-25T14:42:48.575Z,124.83
2018-11-25T14:45:14.839Z,130.73
2018-11-25T14:47:40.016Z,117.83
2018-11-25T14:50:06.138Z,144.67
2018-11-25T14:52:31.231Z,136.10
2018-11-25T14:54:56.333Z,144.70
2018-11-25T14:57:21.443Z,137.83
2018-11-25T14:59:46.553Z,129.43
2018-11-25T15:02:11.687Z,136.67
2018-11-25T15:04:36.801Z,140.13
2018-11-25T15:07:01.920Z,136.53
2018-11-25T15:09:26.994Z,129.77
2018-11-25T15:11:52.097Z,129.10
2018-11-25T15:14:17.264Z,135.80
2018-11-25T15:19:19.268Z,155.63
2018-11-25T15:21:44.402Z,133.77
2018-11-25T15:24:09.499Z,128.13
2018-11-25T15:26:34.621Z,125.47
2018-11-25T15:28:59.738Z,141.20
2018-11-25T15:34:01.656Z,135.93
2018-11-25T15:36:45.719Z,128.90
2018-11-25T15:39:12.359Z,156.00
2018-11-25T15:41:37.497Z,133.90
2018-11-25T15:44:02.620Z,130.07
2018-11-25T15:46:27.744Z,137.67
2018-11-25T15:48:52.854Z,120.67
2018-11-25T15:51:18.015Z,145.50
2018-11-25T15:53:43.149Z,137.10
2018-11-25T15:56:27.337Z,140.77
2018-11-25T15:58:52.438Z,147.23
2018-11-25T16:01:17.541Z,136.90
2018-11-25T16:03:42.642Z,130.67
2018-11-25T16:06:45.725Z,138.50
2018-11-25T16:09:11.051Z,135.83
2018-11-25T16:11:36.211Z,131.67
2018-11-25T16:14:01.366Z,142.30
2018-11-25T16:16:26.526Z,128.60
2018-11-25T16:18:51.669Z,167.73
2018-11-25T16:21:16.750Z,132.47
2018-11-25T16:23:41.857Z,131.87
2018-11-25T16:26:30.124Z,171.27
2018-11-25T16:28:57.292Z,135.10
2018-11-25T16:31:22.414Z,133.53
2018-11-25T16:33:47.578Z,151.57
2018-11-25T16:36:12.679Z,140.50
2018-11-25T16:38:37.863Z,178.10
2018-11-25T16:41:02.986Z,130.07
2018-11-25T16:43:28.193Z,135.10
2018-11-25T16:45:53.256Z,142.27
2018-11-25T16:48:37.326Z,142.37
2018-11-25T16:51:02.436Z,140.80
2018-11-25T16:53:27.582Z,135.37
2018-11-25T16:55:52.752Z,140.27
2018-11-25T16:58:17.899Z,130.23
2018-11-25T17:00:43.184Z,146.63
2018-11-25T17:03:08.588Z,122.97
2018-11-25T17:05:35.513Z,119.60
2018-11-25T17:08:12.139Z,146.93
2018-11-25T17:10:37.323Z,122.90
2018-11-25T17:13:02.429Z,107.33
2018-11-25T17:15:28.960Z,133.97
2018-11-25T17:17:54.091Z,139.30
2018-11-25T17:20:19.528Z,123.37
2018-11-25T17:22:44.644Z,127.80
2018-11-25T17:25:12.005Z,130.10
2018-11-25T17:27:36.574Z,119.93
2018-11-25T17:30:01.681Z,126.10
2018-11-25T17:32:27.078Z,118.77
2018-11-25T17:34:52.147Z,118.03
2018-11-25T17:37:17.240Z,98.93
2018-11-25T17:39:42.371Z,122.93
2018-11-25T17:42:07.649Z,107.77
2018-11-25T17:44:32.816Z,124.27
2018-11-25T17:46:57.954Z,107.00
2018-11-25T17:49:23.056Z,109.70
2018-11-25T17:51:48.193Z,115.07
2018-11-25T17:54:13.327Z,100.97
2018-11-25T17:56:38.443Z,115.40
2018-11-25T17:59:03.787Z,105.83
2018-11-25T18:01:28.945Z,116.53
2018-11-25T18:03:54.061Z,103.53
2018-11-25T18:06:19.157Z,104.03
2018-11-25T18:08:44.299Z,109.67
2018-11-25T18:11:09.400Z,108.63
2018-11-25T18:13:54.624Z,104.70
2018-11-25T18:16:19.754Z,119.43
2018-11-25T18:18:53.761Z,124.50
2018-11-25T18:21:23.550Z,128.23
2018-11-25T18:23:48.712Z,103.90
2018-11-25T18:26:13.820Z,133.67
2018-11-25T18:28:38.946Z,118.10
2018-11-25T18:31:04.091Z,117.20
2018-11-25T18:33:29.342Z,125.53
2018-11-25T18:35:54.439Z,119.00
2018-11-25T18:38:19.599Z,118.77
2018-11-25T18:40:44.708Z,129.27
2018-11-25T18:43:09.922Z,135.30
2018-11-25T18:45:35.128Z,128.50
2018-11-25T18:48:00.307Z,136.47
2018-11-25T18:50:25.437Z,131.97
2018-11-25T18:52:51.970Z,144.07
2018-11-25T18:55:15.314Z,150.67
2018-11-25T18:57:40.581Z,153.07
2018-11-25T19:00:08.828Z,155.17
2018-11-25T19:02:52.991Z,161.83
2018-11-25T19:05:18.128Z,175.30
2018-11-25T19:07:43.422Z,166.90
2018-11-25T19:10:15.710Z,164.70
2018-11-25T19:12:44.372Z,192.67
2018-11-25T19:15:07.058Z,167.23
2018-11-25T19:17:32.203Z,168.03
2018-11-25T19:19:57.309Z,171.47
2018-11-25T19:22:22.537Z,170.90
2018-11-25T19:24:47.723Z,180.83
2018-11-25T19:27:12.857Z,183.70
2018-11-25T19:29:38.062Z,162.73
2018-11-25T19:32:03.190Z,173.10
2018-11-25T19:34:28.336Z,184.57
2018-11-25T19:36:53.457Z,171.83
2018-11-25T19:39:18.659Z,170.67
2018-11-25T19:41:43.753Z,173.80
2018-11-25T19:44:08.848Z,161.27
2018-11-25T19:46:33.979Z,160.53
2018-11-25T19:48:59.084Z,160.03
2018-11-25T19:51:24.328Z,170.03
2018-11-25T19:53:49.452Z,157.77
2018-11-25T19:56:14.959Z,154.17
2018-11-25T19:58:40.026Z,143.17
2018-11-25T20:01:05.199Z,157.67
2018-11-25T20:03:30.456Z,140.20
2018-11-25T20:05:55.629Z,143.57
2018-11-25T20:08:20.809Z,145.43
2018-11-25T20:10:45.968Z,133.60
2018-11-25T20:13:11.992Z,141.97
2018-11-25T20:15:36.799Z,135.97
2018-11-25T20:18:01.922Z,127.40
2018-11-25T20:20:27.859Z,125.83
2018-11-25T20:22:53.465Z,129.53
2018-11-25T20:25:18.953Z,132.77
2018-11-25T20:27:48.722Z,120.73
2018-11-25T20:30:14.929Z,117.00
2018-11-25T20:32:58.757Z,116.33
2018-11-25T20:35:23.953Z,115.27
2018-11-25T20:38:07.781Z,110.33
2018-11-25T20:40:32.983Z,112.37
2018-11-25T20:42:58.064Z,117.47
2018-11-25T20:45:42.346Z,107.43
2018-11-25T20:48:07.491Z,107.03
2018-11-25T20:50:32.618Z,109.70
2018-11-25T20:53:16.460Z,105.40
2018-11-25T20:55:41.543Z,106.63
2018-11-25T20:58:08.426Z,100.60
2018-11-25T21:00:45.250Z,105.17
2018-11-25T21:03:11.698Z,106.00
2018-11-25T21:05:36.784Z,110.67
2018-11-25T21:08:02.013Z,108.27
2018-11-25T21:10:27.252Z,108.30
2018-11-25T21:12:53.655Z,107.50
2018-11-25T21:15:18.781Z,102.40
2018-11-25T21:17:43.845Z,97.77
2018-11-25T21:20:28.604Z,101.83
2018-11-25T21:22:53.736Z,99.93
2018-11-25T21:25:19.944Z,99.33
2018-11-25T21:27:45.093Z,92.17
2018-11-25T21:30:41.869Z,107.00
2018-11-25T21:33:07.871Z,105.13
2018-11-25T21:35:33.009Z,100.83
2018-11-25T21:37:58.166Z,97.57
2018-11-25T21:40:41.109Z,101.43
2018-11-25T21:43:06.745Z,97.90
2018-11-25T21:45:31.872Z,107.93
2018-11-25T21:47:58.041Z,98.87
2018-11-25T21:50:23.531Z,98.70
2018-11-25T21:52:48.620Z,102.57
2018-11-25T21:55:17.517Z,87.30
2018-11-25T21:57:42.673Z,90.97
2018-11-25T22:00:28.709Z,94.50
2018-11-25T22:02:53.795Z,96.43
2018-11-25T22:05:20.071Z,92.93
2018-11-25T22:10:25.236Z,95.90
2018-11-25T22:12:50.609Z,95.17
2018-11-25T22:15:35.260Z,90.30
2018-11-25T22:18:00.376Z,97.23
2018-11-25T22:20:25.482Z,100.70
2018-11-25T22:22:50.871Z,91.70
2018-11-25T22:25:34.969Z,95.23
2018-11-25T22:28:00.051Z,93.20
2018-11-25T22:30:25.456Z,97.47
2018-11-25T22:32:50.600Z,99.67
2018-11-25T22:35:16.911Z,93.90
2018-11-25T22:37:42.219Z,90.43
2018-11-25T22:40:08.975Z,88.30
2018-11-25T22:42:34.072Z,83.13
2018-11-25T22:44:59.202Z,87.00
2018-11-25T22:47:24.344Z,94.60
2018-11-25T22:49:49.441Z,89.43
2018-11-25T22:52:14.539Z,87.10
2018-11-25T22:54:39.613Z,91.57
2018-11-25T22:57:04.719Z,87.50
2018-11-25T22:59:29.818Z,90.50
2018-11-25T23:01:54.958Z,89.73
2018-11-25T23:04:58.019Z,87.33
2018-11-25T23:07:23.190Z,93.70
2018-11-25T23:09:48.284Z,83.20
2018-11-25T23:12:13.792Z,90.47
2018-11-25T23:14:38.866Z,92.17
2018-11-25T23:17:03.954Z,92.43
2018-11-25T23:19:29.034Z,84.20
2018-11-25T23:21:54.111Z,88.53
2018-11-25T23:24:19.158Z,83.67
2018-11-25T23:26:44.213Z,90.33
2018-11-25T23:29:09.311Z,83.57
2018-11-25T23:31:34.380Z,90.30
2018-11-25T23:33:59.425Z,81.43
2018-11-25T23:36:24.531Z,82.33
2018-11-25T23:41:26.260Z,88.97
2018-11-25T23:43:51.338Z,80.03
2018-11-25T23:46:16.409Z,84.57
2018-11-25T23:48:41.532Z,80.53
2018-11-25T23:51:07.021Z,76.83
2018-11-25T23:53:32.143Z,80.27
2018-11-25T23:55:57.185Z,80.47
2018-11-25T23:58:22.253Z,78.93
